GOOYSBGL

Guest
Details From GOOY - Dakar Leopold Sedar Senghor Intl
To SBGL - Galeão Antonio Carlos Jombim
Flight Number -
Tags Generated
Created
Modified
Stats Distance 2,716 nm / 5,030 km
Max Altitude 0 ft / 0 m
Waypoints 4
Social Downloads 3
Likes 0
Share VATSIM

Download

Looking for another format? Having issues loading an existing format? Contact us
Advertisement - Login to hide

Notes

Generated

Route

GOOY NAMIR R1506 SBGL

ID Type Via Altitude Latitude Longitude Leg Dist Tot Dist Heading (true) Name
O GOOY APT - 0 ft / 0 m 14.73171˚ -17.50427˚ - 0 nm - -
NAMIR FIX - 0 ft / 0 m -20.11046˚ -41.14063˚ 2515 nm 2515 nm 214° / 216° -
R1506 FIX - 0 ft / 0 m -22.81244˚ -43.26360˚ 201 nm 2716 nm 216° / 217° -
O SBGL APT - 0 ft / 0 m -22.81244˚ -43.26360˚ 0 nm 2716 nm 0° / 180° -

Altitude Profile

Advertisement - Login to hide

Weather


0- 5 10 15 20 25 30 35+ Temperature / ° C

Clouds and Precipitation
Forecast for 2017-12-14 18:00 UTC. Updated 27 minutes ago

Ground ~20,000 ft ~40,000 ft Winds

GOOY

Details ICAO GOOY (DKR)
Name Dakar Leopold Sedar Senghor Intl
Region Senegal
Timezone Africa/Dakar (UTC+0.0)
Stats Elevation 85 ft / 26 m (AMSL)
Location 14.739711° -17.490226°
Runways 2
Magnetic Variation 7.347° W

METAR

GOOY 141300Z 04012KT CAVOK 24/08 Q1016

Decode

TAF

TAF GOOY 141130Z 1412/1518 04015KT 8000 NSC= TAF GBYD 141130Z 1412/1518 04008KT CAVOK

Decode

Departure Runways

ID Width Length Bearing (true) Bearing (mag) Surface Threshold Offset Overrun Length
03 98 ft / 30 m 4,921 ft / 1,500 m 22.31° 29.66° Asphalt 0 ft / 0 m 98 ft / 30 m
18 148 ft / 45 m 11,511 ft / 3,509 m 172.57° 179.92° Asphalt 525 ft / 160 m 197 ft / 60 m
21 98 ft / 30 m 4,921 ft / 1,500 m 202.31° 209.66° Asphalt 0 ft / 0 m 1,590 ft / 485 m
36 148 ft / 45 m 11,511 ft / 3,509 m 352.57° 359.92° Asphalt 0 ft / 0 m 197 ft / 60 m

SBGL

Details ICAO SBGL (GIG)
Name Galeao Antonio Carlos Jombim
Region Brazil
Timezone America/Sao_Paulo (UTC-2.0)
Stats Elevation 28 ft / 9 m (AMSL)
Location -22.808938° -43.243681°
Runways 2
Magnetic Variation 22.767° W

METAR

SBGL 141300Z 14005KT 9999 FEW025 27/17 Q1017

Decode

TAF

TAF SBGL 140800Z 1412/1518 07007KT 9999 SCT030 TX30/1417Z TN22/1508Z TEMPO 1414/1417 15015KT BECMG 1422/1424 10005KT CAVOK BECMG 1506/1508 03003KT BECMG 1512/1514 13010KT FEW030 TEMPO 1517/1518 15015KT RMK PGX

Decode

Destination Runways

ID Width Length Bearing (true) Bearing (mag) Surface Threshold Offset Overrun Length
10 148 ft / 45 m 13,128 ft / 4,001 m 74.39° 97.16° Concrete 0 ft / 0 m 175 ft / 53 m
15 154 ft / 47 m 10,418 ft / 3,175 m 125.78° 148.55° Asphalt 0 ft / 0 m 185 ft / 56 m
28 148 ft / 45 m 13,128 ft / 4,001 m 254.38° 277.15° Concrete 0 ft / 0 m 175 ft / 53 m
33 154 ft / 47 m 10,418 ft / 3,175 m 305.78° 328.55° Asphalt 0 ft / 0 m 185 ft / 56 m

Approach Navaids

Runway Type Ident Frequency Range Bearing (true) Bearing (mag) Slope Elevation
10 Localiser ITB 109.30 MHz 18 nm / 33 km 74.25° 97.01° - 16 ft / 5 m (AMSL)
10 Glidescope ITB 109.30 MHz 10 nm / 19 km 74.39° 97.15° 3.00° 16 ft / 5 m (AMSL)
15 Localiser IGL 110.30 MHz 18 nm / 33 km 125.61° 148.37° - 12 ft / 4 m (AMSL)
15 Glidescope IGL 110.30 MHz 10 nm / 19 km 125.78° 148.55° 3.00° 17 ft / 5 m (AMSL)
15 DME IGL 110.30 MHz 18 nm / 33 km - - - 17 ft / 5 m (AMSL)
28 Localiser ILM 111.50 MHz 18 nm / 33 km 254.59° 277.36° - 28 ft / 9 m (AMSL)
28 Glidescope ILM 111.50 MHz 10 nm / 19 km 254.39° 277.15° 2.94° 28 ft / 9 m (AMSL)
28 DME ILM 111.50 MHz 18 nm / 33 km - - - 28 ft / 9 m (AMSL)

Popular Alternatives